createdAt,value
2018-07-16T00:00:54.054Z,62.85
2018-07-16T00:03:20.379Z,63.20
2018-07-16T00:05:46.711Z,63.10
2018-07-16T00:08:13.063Z,62.27
2018-07-16T00:10:39.371Z,62.34
2018-07-16T00:13:05.686Z,62.21
2018-07-16T00:15:32.002Z,62.36
2018-07-16T00:17:58.314Z,62.10
2018-07-16T00:20:24.625Z,61.22
2018-07-16T00:22:50.938Z,60.91
2018-07-16T00:25:17.250Z,61.13
2018-07-16T00:27:43.571Z,61.23
2018-07-16T00:30:09.924Z,61.39
2018-07-16T00:32:36.236Z,61.76
2018-07-16T00:35:02.554Z,61.97
2018-07-16T00:37:28.862Z,62.21
2018-07-16T00:39:55.177Z,62.22
2018-07-16T00:42:21.493Z,62.57
2018-07-16T00:44:47.843Z,62.83
2018-07-16T00:47:14.156Z,64.53
2018-07-16T00:49:40.467Z,63.04
2018-07-16T00:52:06.789Z,63.19
2018-07-16T00:54:33.144Z,62.81
2018-07-16T00:56:59.463Z,62.47
2018-07-16T00:59:25.777Z,62.47
2018-07-16T01:01:52.094Z,62.49
2018-07-16T01:04:18.412Z,62.60
2018-07-16T01:06:44.724Z,62.18
2018-07-16T01:09:11.034Z,61.82
2018-07-16T01:11:37.384Z,62.07
2018-07-16T01:14:03.703Z,62.06
2018-07-16T01:16:30.014Z,62.03
2018-07-16T01:18:56.324Z,61.81
2018-07-16T01:21:22.678Z,62.16
2018-07-16T01:23:48.990Z,62.04
2018-07-16T01:26:15.347Z,61.96
2018-07-16T01:28:41.689Z,62.12
2018-07-16T01:31:07.963Z,61.90
2018-07-16T01:33:34.277Z,61.80
2018-07-16T01:36:00.587Z,61.66
2018-07-16T01:38:26.914Z,61.73
2018-07-16T01:40:53.266Z,61.90
2018-07-16T01:43:19.583Z,62.35
2018-07-16T01:45:45.905Z,62.27
2018-07-16T01:48:12.217Z,61.97
2018-07-16T01:50:38.536Z,62.47
2018-07-16T01:53:04.884Z,62.60
2018-07-16T01:55:31.196Z,63.02
2018-07-16T01:57:57.516Z,63.12
2018-07-16T02:00:23.863Z,63.14
2018-07-16T02:02:50.171Z,63.12
2018-07-16T02:05:16.520Z,63.41
2018-07-16T02:07:42.829Z,63.07
2018-07-16T02:10:09.145Z,63.46
2018-07-16T02:12:35.455Z,64.41
2018-07-16T02:15:01.769Z,64.85
2018-07-16T02:17:28.084Z,64.75
2018-07-16T02:19:54.392Z,64.73
2018-07-16T02:22:20.705Z,65.35
2018-07-16T02:24:47.018Z,65.51
2018-07-16T02:27:13.383Z,65.16
2018-07-16T02:29:39.696Z,65.65
2018-07-16T02:32:06.005Z,66.59
2018-07-16T02:34:32.331Z,66.84
2018-07-16T02:36:58.653Z,66.34
2018-07-16T02:39:24.965Z,65.55
2018-07-16T02:41:51.298Z,65.52
2018-07-16T02:44:17.657Z,64.72
2018-07-16T02:46:44.044Z,65.24
2018-07-16T02:49:10.358Z,65.35
2018-07-16T02:51:36.680Z,66.40
2018-07-16T02:54:03.065Z,65.86
2018-07-16T02:56:29.415Z,65.35
2018-07-16T02:58:55.731Z,65.07
2018-07-16T03:01:22.040Z,65.19
2018-07-16T03:03:48.405Z,65.17
2018-07-16T03:06:14.718Z,65.31
2018-07-16T03:08:41.067Z,66.08
2018-07-16T03:11:07.459Z,67.00
2018-07-16T03:13:33.758Z,67.08
2018-07-16T03:16:00.071Z,66.94
2018-07-16T03:18:26.433Z,66.47
2018-07-16T03:20:52.742Z,66.91
2018-07-16T03:23:19.052Z,67.30
2018-07-16T03:25:45.372Z,67.57
2018-07-16T03:28:11.728Z,67.09
2018-07-16T03:30:38.039Z,67.30
2018-07-16T03:33:04.400Z,66.98
2018-07-16T03:35:30.755Z,66.46
2018-07-16T03:37:57.068Z,66.03
2018-07-16T03:40:23.509Z,65.78
2018-07-16T03:42:49.815Z,65.86
2018-07-16T03:45:16.128Z,65.40
2018-07-16T03:47:42.443Z,64.83
2018-07-16T03:50:08.773Z,64.99
2018-07-16T03:52:35.095Z,65.04
2018-07-16T03:55:01.410Z,65.38
2018-07-16T03:57:27.720Z,65.06
2018-07-16T03:59:54.039Z,65.22
2018-07-16T04:02:20.348Z,65.13
2018-07-16T04:04:46.663Z,65.38
2018-07-16T04:07:12.977Z,66.54
2018-07-16T04:09:39.288Z,66.15
2018-07-16T04:12:05.640Z,65.88
2018-07-16T04:14:31.953Z,66.18
2018-07-16T04:16:58.268Z,65.79
2018-07-16T04:19:24.580Z,65.56
2018-07-16T04:21:51.049Z,65.54
2018-07-16T04:24:17.360Z,65.58
2018-07-16T04:26:43.672Z,66.04
2018-07-16T04:29:09.985Z,66.00
2018-07-16T04:31:36.295Z,65.78
2018-07-16T04:34:02.608Z,65.90
2018-07-16T04:36:28.924Z,65.09
2018-07-16T04:38:55.233Z,64.56
2018-07-16T04:41:21.542Z,64.81
2018-07-16T04:43:47.851Z,64.63
2018-07-16T04:46:14.168Z,64.60
2018-07-16T04:48:40.489Z,65.16
2018-07-16T04:51:06.810Z,64.90
2018-07-16T04:53:33.122Z,65.46
2018-07-16T04:55:59.428Z,70.86
2018-07-16T04:58:25.804Z,74.93
2018-07-16T05:00:52.122Z,77.06
2018-07-16T05:03:18.513Z,77.06
2018-07-16T05:05:44.793Z,70.78
2018-07-16T05:08:11.125Z,68.05
2018-07-16T05:10:37.437Z,77.53
2018-07-16T05:13:03.795Z,81.76
2018-07-16T05:15:30.126Z,84.29
2018-07-16T05:17:56.439Z,84.76
2018-07-16T05:20:22.770Z,84.91
2018-07-16T05:22:49.083Z,86.48
2018-07-16T05:25:15.393Z,86.61
2018-07-16T05:27:41.699Z,87.32
2018-07-16T05:30:08.054Z,87.96
2018-07-16T05:32:34.475Z,89.34
2018-07-16T05:35:00.678Z,90.45
2018-07-16T05:37:27.007Z,91.14
2018-07-16T05:39:53.324Z,91.73
2018-07-16T05:42:19.642Z,90.57
2018-07-16T05:44:45.956Z,90.11
2018-07-16T05:47:12.274Z,90.71
2018-07-16T05:49:38.591Z,91.34
2018-07-16T05:52:04.962Z,90.34
2018-07-16T05:54:31.271Z,88.33
2018-07-16T05:56:57.582Z,88.12
2018-07-16T05:59:23.892Z,88.83
2018-07-16T06:01:50.209Z,87.86
2018-07-16T06:04:16.526Z,87.75
2018-07-16T06:06:42.836Z,88.24
2018-07-16T06:09:09.148Z,88.80
2018-07-16T06:11:35.466Z,88.54
2018-07-16T06:14:01.774Z,89.48
2018-07-16T06:16:28.084Z,90.42
2018-07-16T06:18:54.464Z,89.49
2018-07-16T06:21:20.767Z,89.21
2018-07-16T06:23:47.075Z,88.09
2018-07-16T06:26:13.410Z,88.47
2018-07-16T06:28:39.721Z,88.27
2018-07-16T06:31:06.033Z,88.86
2018-07-16T06:33:32.373Z,88.25
2018-07-16T06:35:58.725Z,89.65
2018-07-16T06:38:25.113Z,87.70
2018-07-16T06:40:51.654Z,87.98
2018-07-16T06:43:17.721Z,88.48
2018-07-16T06:45:44.032Z,88.37
2018-07-16T06:48:10.397Z,88.34
2018-07-16T06:50:36.711Z,88.13
2018-07-16T06:53:03.041Z,88.30
2018-07-16T06:55:29.347Z,88.39
2018-07-16T06:57:55.663Z,85.94
2018-07-16T07:00:21.971Z,86.09
2018-07-16T07:02:48.296Z,85.78
2018-07-16T07:05:14.609Z,87.59
2018-07-16T07:07:40.920Z,89.00
2018-07-16T07:10:07.319Z,89.17
2018-07-16T07:12:33.597Z,88.70
2018-07-16T07:14:59.907Z,88.16
2018-07-16T07:17:26.227Z,87.29
2018-07-16T07:19:52.541Z,86.27
2018-07-16T07:22:18.914Z,83.91
2018-07-16T07:24:45.228Z,82.70
2018-07-16T07:27:11.589Z,81.39
2018-07-16T07:29:37.908Z,83.30
2018-07-16T07:32:04.221Z,81.69
2018-07-16T07:34:30.538Z,79.77
2018-07-16T07:36:56.855Z,79.23
2018-07-16T07:39:23.171Z,79.13
2018-07-16T07:41:49.481Z,77.47
2018-07-16T07:44:15.796Z,77.90
2018-07-16T07:46:42.110Z,77.72
2018-07-16T07:49:08.443Z,76.33
2018-07-16T07:51:34.751Z,76.31
2018-07-16T07:54:01.066Z,77.38
2018-07-16T07:56:27.416Z,73.96
2018-07-16T07:58:53.733Z,72.49
2018-07-16T08:01:20.045Z,73.56
2018-07-16T08:03:46.360Z,74.34
2018-07-16T08:06:12.671Z,73.48
2018-07-16T08:08:38.983Z,70.30
2018-07-16T08:11:05.292Z,66.96
2018-07-16T08:13:31.612Z,67.37
2018-07-16T08:15:57.922Z,67.72
2018-07-16T08:18:24.231Z,68.55
2018-07-16T08:20:50.553Z,69.48
2018-07-16T08:23:16.866Z,68.08
2018-07-16T08:25:43.180Z,64.87
2018-07-16T08:28:09.507Z,64.75
2018-07-16T08:30:35.811Z,63.64
2018-07-16T08:33:02.121Z,63.28
2018-07-16T08:35:28.436Z,58.98
2018-07-16T08:37:54.753Z,59.27
2018-07-16T08:40:21.067Z,58.49
2018-07-16T08:42:47.380Z,57.85
2018-07-16T08:45:13.718Z,57.40
2018-07-16T08:47:40.008Z,55.85
2018-07-16T08:50:06.320Z,56.69
2018-07-16T08:52:32.633Z,56.44
2018-07-16T08:54:58.953Z,56.65
2018-07-16T08:57:25.277Z,57.54
2018-07-16T08:59:51.588Z,57.50
2018-07-16T09:02:17.900Z,55.47
2018-07-16T09:04:44.217Z,54.16
2018-07-16T09:07:10.618Z,50.94
2018-07-16T09:09:36.851Z,49.96
2018-07-16T09:12:03.175Z,52.59
2018-07-16T09:14:29.483Z,51.24
2018-07-16T09:16:55.804Z,51.32
2018-07-16T09:19:22.113Z,51.11
2018-07-16T09:21:48.448Z,49.65
2018-07-16T09:24:14.759Z,48.66
2018-07-16T09:26:41.072Z,48.93
2018-07-16T09:29:07.383Z,49.55
2018-07-16T09:31:33.694Z,47.88
2018-07-16T09:34:00.014Z,46.84
2018-07-16T09:36:26.323Z,46.31
2018-07-16T09:38:52.667Z,46.22
2018-07-16T09:41:18.965Z,45.84
2018-07-16T09:43:45.281Z,45.73
2018-07-16T09:46:11.591Z,44.82
2018-07-16T09:48:37.920Z,44.86
2018-07-16T09:51:04.271Z,45.02
2018-07-16T09:53:30.592Z,44.74
2018-07-16T09:55:56.940Z,45.73
2018-07-16T09:58:23.263Z,44.23
2018-07-16T10:00:49.584Z,45.00
2018-07-16T10:03:15.896Z,44.04
2018-07-16T10:05:42.259Z,43.41
2018-07-16T10:08:08.561Z,42.24
2018-07-16T10:10:34.879Z,42.67
2018-07-16T10:13:01.196Z,44.73
2018-07-16T10:15:27.518Z,45.42
2018-07-16T10:17:53.840Z,44.30
2018-07-16T10:20:20.255Z,43.81
2018-07-16T10:22:46.470Z,43.21
2018-07-16T10:25:12.779Z,43.68
2018-07-16T10:27:39.091Z,43.49
2018-07-16T10:30:05.445Z,42.40
2018-07-16T10:32:31.757Z,42.10
2018-07-16T10:34:58.067Z,42.29
2018-07-16T10:37:24.390Z,42.67
2018-07-16T10:39:50.703Z,40.00
2018-07-16T10:42:17.024Z,40.84
2018-07-16T10:44:43.335Z,40.88
2018-07-16T10:47:09.658Z,41.70
2018-07-16T10:49:36.023Z,41.85
2018-07-16T10:52:02.288Z,40.11
2018-07-16T10:54:28.601Z,38.96
2018-07-16T10:56:54.911Z,39.91
2018-07-16T10:59:21.230Z,38.50
2018-07-16T11:01:47.564Z,39.96
2018-07-16T11:04:13.889Z,40.89
2018-07-16T11:06:40.205Z,41.68
2018-07-16T11:09:06.512Z,39.61
2018-07-16T11:11:32.824Z,39.00
2018-07-16T11:13:59.142Z,38.62
2018-07-16T11:16:25.457Z,37.59
2018-07-16T11:18:51.773Z,38.74
2018-07-16T11:21:18.090Z,38.65
2018-07-16T11:23:44.410Z,36.98
2018-07-16T11:26:10.768Z,37.60
2018-07-16T11:28:37.083Z,37.95
2018-07-16T11:31:03.396Z,38.27
2018-07-16T11:33:29.703Z,37.89
2018-07-16T11:35:56.105Z,38.45
2018-07-16T11:38:22.342Z,38.37
2018-07-16T11:40:48.654Z,38.82
2018-07-16T11:43:14.981Z,40.83
2018-07-16T11:45:41.287Z,42.25
2018-07-16T11:48:07.603Z,41.55
2018-07-16T11:50:33.926Z,41.63
2018-07-16T11:53:00.254Z,42.18
2018-07-16T11:55:26.566Z,42.51
2018-07-16T11:57:52.876Z,41.46
2018-07-16T12:00:19.197Z,41.20
2018-07-16T12:02:45.515Z,41.07
2018-07-16T12:05:11.894Z,41.67
2018-07-16T12:07:38.151Z,40.35
2018-07-16T12:10:04.455Z,40.83
2018-07-16T12:12:30.779Z,39.91
2018-07-16T12:14:57.075Z,39.41
2018-07-16T12:17:23.411Z,39.67
2018-07-16T12:19:49.731Z,40.21
2018-07-16T12:22:16.053Z,42.23
2018-07-16T12:24:42.363Z,40.64
2018-07-16T12:27:08.675Z,40.84
2018-07-16T12:29:35.007Z,41.72
2018-07-16T12:32:01.330Z,43.87
2018-07-16T12:34:27.644Z,43.00
2018-07-16T12:36:53.966Z,42.14
2018-07-16T12:39:20.283Z,43.14
2018-07-16T12:41:46.644Z,41.74
2018-07-16T12:44:12.905Z,41.47
2018-07-16T12:46:39.219Z,43.12
2018-07-16T12:49:05.535Z,40.87
2018-07-16T12:51:31.868Z,42.08
2018-07-16T12:53:58.180Z,41.57
2018-07-16T12:56:24.493Z,42.04
2018-07-16T12:58:50.842Z,43.86
2018-07-16T13:01:17.161Z,44.07
2018-07-16T13:03:43.515Z,44.61
2018-07-16T13:06:09.866Z,45.22
2018-07-16T13:08:36.167Z,44.66
2018-07-16T13:11:02.483Z,43.72
2018-07-16T13:13:28.805Z,43.56
2018-07-16T13:15:55.168Z,46.12
2018-07-16T13:18:21.467Z,46.42
2018-07-16T13:20:47.744Z,42.93
2018-07-16T13:23:14.061Z,45.37
2018-07-16T13:25:40.386Z,45.28
2018-07-16T13:28:06.745Z,43.54
2018-07-16T13:30:33.060Z,43.49
2018-07-16T13:32:59.374Z,43.52
2018-07-16T13:35:25.738Z,44.10
2018-07-16T13:37:52.050Z,44.54
2018-07-16T13:40:18.368Z,44.56
2018-07-16T13:42:44.680Z,47.02
2018-07-16T13:45:11.016Z,47.12
2018-07-16T13:47:37.336Z,47.39
2018-07-16T13:50:03.677Z,44.66
2018-07-16T13:52:29.983Z,43.05
2018-07-16T13:54:56.297Z,42.85
2018-07-16T13:57:22.604Z,43.19
2018-07-16T13:59:50.533Z,45.64
2018-07-16T14:02:15.298Z,45.48
2018-07-16T14:04:41.584Z,44.78
2018-07-16T14:07:07.860Z,44.93
2018-07-16T14:09:34.234Z,43.78
2018-07-16T14:12:00.547Z,44.59
2018-07-16T14:14:26.862Z,44.60
2018-07-16T14:16:53.177Z,44.16
2018-07-16T14:19:19.539Z,44.07
2018-07-16T14:21:45.851Z,44.00
2018-07-16T14:24:12.165Z,43.79
2018-07-16T14:26:38.526Z,43.31
2018-07-16T14:29:04.836Z,44.89
2018-07-16T14:31:31.151Z,46.19
2018-07-16T14:33:57.464Z,45.52
2018-07-16T14:36:23.785Z,46.06
2018-07-16T14:38:50.092Z,47.49
2018-07-16T14:41:16.404Z,45.40
2018-07-16T14:43:42.721Z,46.92
2018-07-16T14:46:09.031Z,46.32
2018-07-16T14:48:35.341Z,45.16
2018-07-16T14:51:01.738Z,45.72
2018-07-16T14:53:28.052Z,47.25
2018-07-16T14:55:54.368Z,46.80
2018-07-16T14:58:20.684Z,46.46
2018-07-16T15:00:47.000Z,46.14
2018-07-16T15:03:13.310Z,47.14
2018-07-16T15:05:39.620Z,47.73
2018-07-16T15:08:05.928Z,45.52
2018-07-16T15:10:32.273Z,46.00
2018-07-16T15:12:58.595Z,46.38
2018-07-16T15:15:24.906Z,46.30
2018-07-16T15:17:51.226Z,45.02
2018-07-16T15:20:21.131Z,44.24
2018-07-16T15:22:55.137Z,46.06
2018-07-16T15:25:14.327Z,46.89
2018-07-16T15:27:41.802Z,45.96
2018-07-16T15:30:08.093Z,46.20
2018-07-16T15:32:34.408Z,45.55
2018-07-16T15:35:11.308Z,44.75
2018-07-16T15:37:58.670Z,44.37
2018-07-16T15:40:08.379Z,45.37
2018-07-16T15:42:34.693Z,45.86
2018-07-16T15:45:01.026Z,45.68
2018-07-16T15:47:27.319Z,45.00
2018-07-16T15:49:53.638Z,46.94
2018-07-16T15:52:19.956Z,46.92
2018-07-16T15:54:46.264Z,47.30
2018-07-16T15:57:19.713Z,47.77
2018-07-16T15:59:46.026Z,47.32
2018-07-16T16:02:13.196Z,46.58
2018-07-16T16:04:41.535Z,45.80
2018-07-16T16:07:13.366Z,45.92
2018-07-16T16:09:39.617Z,45.59
2018-07-16T16:12:05.962Z,44.99
2018-07-16T16:14:32.531Z,45.02
2018-07-16T16:16:58.807Z,44.91
2018-07-16T16:19:25.148Z,45.65
2018-07-16T16:21:51.464Z,45.26
2018-07-16T16:24:17.789Z,47.47
2018-07-16T16:26:44.099Z,48.23
2018-07-16T16:29:10.412Z,47.50
2018-07-16T16:31:36.730Z,47.65
2018-07-16T16:34:03.043Z,46.88
2018-07-16T16:36:29.516Z,48.79
2018-07-16T16:38:55.805Z,48.35
2018-07-16T16:41:22.178Z,48.88
2018-07-16T16:43:48.490Z,49.37
2018-07-16T16:46:14.800Z,48.80
2018-07-16T16:48:41.123Z,45.45
2018-07-16T16:51:07.449Z,44.47
2018-07-16T16:53:33.791Z,44.12
2018-07-16T16:56:00.081Z,43.82
2018-07-16T16:58:26.396Z,43.72
2018-07-16T17:00:52.705Z,43.09
2018-07-16T17:03:19.011Z,42.75
2018-07-16T17:05:45.334Z,42.82
2018-07-16T17:08:11.658Z,42.90
2018-07-16T17:10:37.971Z,43.41
2018-07-16T17:13:04.329Z,70.65
2018-07-16T17:15:30.653Z,100.00
2018-07-16T17:17:56.975Z,100.00
2018-07-16T17:20:23.289Z,100.00
2018-07-16T17:22:49.607Z,100.00
2018-07-16T17:25:15.938Z,100.00
2018-07-16T17:27:42.266Z,100.00
2018-07-16T17:30:08.618Z,100.00
2018-07-16T17:32:34.927Z,100.00
2018-07-16T17:35:01.278Z,100.00
2018-07-16T17:37:27.603Z,100.00
2018-07-16T17:39:53.959Z,100.00
2018-07-16T17:42:22.695Z,100.00
2018-07-16T17:44:49.043Z,100.00
2018-07-16T17:47:15.360Z,100.00
2018-07-16T17:49:41.709Z,100.00
2018-07-16T17:52:08.004Z,100.00
2018-07-16T17:54:34.339Z,100.00
2018-07-16T17:57:00.660Z,100.00
2018-07-16T17:59:26.976Z,100.00
2018-07-16T18:01:53.297Z,100.00
2018-07-16T18:04:19.615Z,100.00
2018-07-16T18:06:45.947Z,95.64
2018-07-16T18:09:12.268Z,90.65
2018-07-16T18:11:38.618Z,88.76
2018-07-16T18:14:04.900Z,87.03
2018-07-16T18:16:31.225Z,82.60
2018-07-16T18:18:57.555Z,81.98
2018-07-16T18:21:23.880Z,80.40
2018-07-16T18:23:50.252Z,78.42
2018-07-16T18:26:16.634Z,79.05
2018-07-16T18:28:42.987Z,76.00
2018-07-16T18:31:09.314Z,77.24
2018-07-16T18:33:35.645Z,73.34
2018-07-16T18:36:03.086Z,72.71
2018-07-16T18:38:29.451Z,72.66
2018-07-16T18:40:55.815Z,73.60
2018-07-16T18:43:22.137Z,72.76
2018-07-16T18:45:48.447Z,71.75
2018-07-16T18:48:14.777Z,71.97
2018-07-16T18:50:41.104Z,72.35
2018-07-16T18:53:07.435Z,72.03
2018-07-16T18:55:33.820Z,72.79
2018-07-16T18:58:00.081Z,70.82
2018-07-16T19:00:26.447Z,70.07
2018-07-16T19:02:52.765Z,70.46
2018-07-16T19:05:19.090Z,68.67
2018-07-16T19:07:45.421Z,69.98
2018-07-16T19:10:11.731Z,69.77
2018-07-16T19:12:38.115Z,65.81
2018-07-16T19:15:04.437Z,66.73
2018-07-16T19:17:30.747Z,67.82
2018-07-16T19:19:57.124Z,66.40
2018-07-16T19:22:23.436Z,67.86
2018-07-16T19:24:49.813Z,67.40
2018-07-16T19:27:16.117Z,66.38
2018-07-16T19:29:42.532Z,65.00
2018-07-16T19:32:08.847Z,65.12
2018-07-16T19:34:35.198Z,65.08
2018-07-16T19:37:01.562Z,65.22
2018-07-16T19:39:27.856Z,65.56
2018-07-16T19:41:54.221Z,67.27
2018-07-16T19:44:20.532Z,67.71
2018-07-16T19:46:46.848Z,68.36
2018-07-16T19:49:13.173Z,68.80
2018-07-16T19:51:39.482Z,68.83
2018-07-16T19:54:05.801Z,68.84
2018-07-16T19:56:32.111Z,68.24
2018-07-16T19:58:58.424Z,66.97
2018-07-16T20:01:24.754Z,68.24
2018-07-16T20:03:51.085Z,68.15
2018-07-16T20:06:17.375Z,67.93
2018-07-16T20:08:43.706Z,68.49
2018-07-16T20:11:10.032Z,69.63
2018-07-16T20:13:36.404Z,69.17
2018-07-16T20:16:02.715Z,67.84
2018-07-16T20:18:29.045Z,66.86
2018-07-16T20:20:55.435Z,66.21
2018-07-16T20:23:21.689Z,66.37
2018-07-16T20:25:48.016Z,66.58
2018-07-16T20:28:14.480Z,67.00
2018-07-16T20:30:40.753Z,68.36
2018-07-16T20:33:07.067Z,68.61
2018-07-16T20:35:33.379Z,69.48
2018-07-16T20:37:59.768Z,69.68
2018-07-16T20:40:26.096Z,69.08
2018-07-16T20:42:52.410Z,67.96
2018-07-16T20:45:18.739Z,67.49
2018-07-16T20:47:45.229Z,66.39
2018-07-16T20:50:11.527Z,66.83
2018-07-16T20:52:37.858Z,67.14
2018-07-16T20:55:04.184Z,66.60
2018-07-16T20:57:30.499Z,66.11
2018-07-16T20:59:56.899Z,66.03
2018-07-16T21:02:23.247Z,66.08
2018-07-16T21:04:49.606Z,66.81
2018-07-16T21:07:16.033Z,66.04
2018-07-16T21:09:42.309Z,66.72
2018-07-16T21:12:08.673Z,66.51
2018-07-16T21:14:34.986Z,66.11
2018-07-16T21:17:01.298Z,67.12
2018-07-16T21:19:27.629Z,68.34
2018-07-16T21:21:53.940Z,69.09
2018-07-16T21:24:20.259Z,69.32
2018-07-16T21:26:46.588Z,70.58
2018-07-16T21:29:12.901Z,71.06
2018-07-16T21:31:39.217Z,71.36
2018-07-16T21:34:05.535Z,71.70
2018-07-16T21:36:31.852Z,72.85
2018-07-16T21:38:58.170Z,73.29
2018-07-16T21:41:24.490Z,72.84
2018-07-16T21:43:50.814Z,73.63
2018-07-16T21:46:17.125Z,72.02
2018-07-16T21:48:43.443Z,71.25
2018-07-16T21:51:09.755Z,71.63
2018-07-16T21:53:36.113Z,72.12
2018-07-16T21:56:02.419Z,72.51
2018-07-16T21:58:28.734Z,72.07
2018-07-16T22:00:55.048Z,72.20
2018-07-16T22:03:21.363Z,71.76
2018-07-16T22:05:47.671Z,72.13
2018-07-16T22:08:14.008Z,72.35
2018-07-16T22:10:40.311Z,73.20
2018-07-16T22:13:06.624Z,74.00
2018-07-16T22:15:32.941Z,74.34
2018-07-16T22:17:59.311Z,74.85
2018-07-16T22:20:25.634Z,75.22
2018-07-16T22:22:51.950Z,74.85
2018-07-16T22:25:18.302Z,74.99
2018-07-16T22:27:44.594Z,74.06
2018-07-16T22:30:10.933Z,73.82
2018-07-16T22:32:37.254Z,73.33
2018-07-16T22:35:03.570Z,74.40
2018-07-16T22:37:29.883Z,74.17
2018-07-16T22:39:56.204Z,74.00
2018-07-16T22:42:22.515Z,75.62
2018-07-16T22:44:48.828Z,75.01
2018-07-16T22:47:15.155Z,75.25
2018-07-16T22:49:41.469Z,75.78
2018-07-16T22:52:07.865Z,75.96
2018-07-16T22:54:34.181Z,76.64
2018-07-16T22:57:00.546Z,77.07
2018-07-16T22:59:26.863Z,76.47
2018-07-16T23:01:53.172Z,74.98
2018-07-16T23:04:19.495Z,76.30
2018-07-16T23:06:45.805Z,76.81
2018-07-16T23:09:12.118Z,76.84
2018-07-16T23:11:38.436Z,77.42
2018-07-16T23:14:04.750Z,77.79
2018-07-16T23:16:31.063Z,78.18
2018-07-16T23:18:57.371Z,78.11
2018-07-16T23:21:23.700Z,78.14
2018-07-16T23:23:50.050Z,78.17
2018-07-16T23:26:16.336Z,78.19
2018-07-16T23:28:42.693Z,78.32
2018-07-16T23:31:08.957Z,78.23
2018-07-16T23:33:35.310Z,78.86
2018-07-16T23:36:01.718Z,79.39
2018-07-16T23:38:31.452Z,78.86
2018-07-16T23:40:57.729Z,77.90
2018-07-16T23:43:24.041Z,77.97
2018-07-16T23:45:50.352Z,77.46
2018-07-16T23:48:16.663Z,78.33
2018-07-16T23:50:42.979Z,78.98
2018-07-16T23:53:09.340Z,78.99
2018-07-16T23:55:35.703Z,78.48
2018-07-16T23:58:02.006Z,77.76
